Time;durP1;ratioP1;P1;durP2;ratioP2;P2;SDS_P1;SDS_P2;PMS_P1;PMS_P2;Temp;Humidity;BMP_temperature;BMP_pressure;BME280_temperature;BME280_humidity;BME280_pressure;Samples;Min_cycle;Max_cycle;Signal;HPM_P1;HPM_P2
2022/10/10 00:00:05;;;;;;;1.17;0.60;;;;;;;6.40;100.00;100378.72;4941026;29;20512;-56
2022/10/10 00:02:31;;;;;;;0.63;0.63;;;;;;;6.24;100.00;100372.72;4941020;28;20515;-56
2022/10/10 00:04:58;;;;;;;0.80;0.80;;;;;;;6.20;100.00;100370.13;4946576;28;20891;-56
2022/10/10 00:07:24;;;;;;;0.83;0.83;;;;;;;6.24;100.00;100363.94;4947576;29;20459;-56
2022/10/10 00:09:51;;;;;;;1.23;1.17;;;;;;;6.22;100.00;100365.72;4941619;29;20479;-59
2022/10/10 00:12:17;;;;;;;0.50;0.50;;;;;;;6.15;100.00;100369.28;4941148;28;20501;-59
2022/10/10 00:14:43;;;;;;;1.40;1.30;;;;;;;6.13;100.00;100365.78;4946420;28;20455;-58
2022/10/10 00:17:10;;;;;;;1.30;0.93;;;;;;;6.13;100.00;100369.31;4941078;28;21369;-58
2022/10/10 00:19:36;;;;;;;3.20;1.30;;;;;;;6.09;100.00;100370.22;4953585;28;20892;-58
2022/10/10 00:22:03;;;;;;;0.50;0.50;;;;;;;6.18;100.00;100371.91;4940961;28;20456;-56
2022/10/10 00:24:29;;;;;;;2.00;1.80;;;;;;;6.00;100.00;100369.44;4945170;28;20492;-57
2022/10/10 00:26:55;;;;;;;0.80;0.73;;;;;;;5.98;100.00;100368.56;4947419;29;20458;-57
2022/10/10 00:29:22;;;;;;;9.43;1.57;;;;;;;6.08;100.00;100360.56;4942265;29;20482;-56
2022/10/10 00:31:48;;;;;;;0.90;0.87;;;;;;;6.08;100.00;100368.47;4940583;28;20460;-57
2022/10/10 00:34:14;;;;;;;0.60;0.40;;;;;;;6.17;100.00;100362.25;4945171;28;20468;-57
2022/10/10 00:36:41;;;;;;;0.60;0.60;;;;;;;5.82;100.00;100359.88;4947014;29;20459;-58
2022/10/10 00:39:07;;;;;;;0.80;0.63;;;;;;;5.89;100.00;100362.47;4942340;29;20483;-57
2022/10/10 00:41:33;;;;;;;0.50;0.40;;;;;;;6.03;100.00;100367.66;4939918;28;20492;-56
2022/10/10 00:44:09;;;;;;;0.67;0.53;;;;;;;6.06;100.00;100367.63;4952690;28;20824;-56
2022/10/10 00:46:36;;;;;;;0.80;0.70;;;;;;;6.03;100.00;100367.66;4940231;28;20459;-57
2022/10/10 00:49:05;;;;;;;0.87;0.40;;;;;;;5.89;100.00;100364.19;4943865;28;20528;-56
2022/10/10 00:51:32;;;;;;;1.90;1.80;;;;;;;5.80;100.00;100356.38;4946837;29;20511;-57
2022/10/10 00:54:02;;;;;;;0.50;0.40;;;;;;;5.79;100.00;100358.16;4944309;29;20503;-57
2022/10/10 00:56:38;;;;;;;0.77;0.77;;;;;;;5.80;100.00;100361.66;4939121;29;20455;-56
2022/10/10 00:59:07;;;;;;;0.90;0.53;;;;;;;5.88;100.00;100363.31;4941187;28;20550;-57
2022/10/10 01:01:33;;;;;;;0.93;0.93;;;;;;;5.79;100.00;100358.16;4946483;29;20464;-57
2022/10/10 01:04:01;;;;;;;0.70;0.70;;;;;;;5.68;100.00;100352.06;4945747;29;20455;-57
2022/10/10 01:06:28;;;;;;;2.20;1.57;;;;;;;5.72;100.00;100350.28;4939442;29;20514;-58
2022/10/10 01:08:55;;;;;;;1.70;1.60;;;;;;;5.85;100.00;100347.53;4940326;29;20472;-57
2022/10/10 01:11:45;;;;;;;1.23;0.60;;;;;;;5.85;100.00;100342.25;4946335;29;20519;-57
2022/10/10 01:14:17;;;;;;;1.17;0.50;;;;;;;5.73;100.00;100344.13;4938860;29;20497;-58
2022/10/10 01:16:55;;;;;;;0.63;0.47;;;;;;;5.67;100.00;100339.78;4942052;28;20452;-58
2022/10/10 01:20:18;;;;;;;0.77;0.63;;;;;;;5.68;100.00;100333.63;4951320;29;20475;-58
2022/10/10 01:23:18;;;;;;;1.10;1.00;;;;;;;5.60;100.00;100338.06;4886474;29;21151;-57
2022/10/10 01:25:57;;;;;;;13.13;1.27;;;;;;;5.69;100.00;100345.91;4886469;29;20455;-58
2022/10/10 01:28:38;;;;;;;0.60;0.60;;;;;;;5.58;100.00;100343.34;4940628;29;20815;-58
2022/10/10 01:31:09;;;;;;;6.30;1.13;;;;;;;5.53;100.00;100345.16;4941830;29;20451;-58
2022/10/10 01:33:43;;;;;;;0.87;0.60;;;;;;;5.53;100.00;100337.25;4936577;28;20988;-57
2022/10/10 01:36:25;;;;;;;0.70;0.70;;;;;;;5.64;100.00;100332.78;4943230;28;20455;-58
2022/10/10 01:38:59;;;;;;;1.50;0.67;;;;;;;5.67;100.00;100326.59;4926775;29;20506;-57
2022/10/10 01:41:39;;;;;;;0.83;0.83;;;;;;;5.68;100.00;100324.84;4939277;28;20511;-58
2022/10/10 01:44:05;;;;;;;1.40;1.30;;;;;;;5.74;100.00;100322.13;4951619;28;20455;-57
2022/10/10 01:46:32;;;;;;;1.90;1.17;;;;;;;5.78;100.00;100326.53;4939007;28;20526;-58
2022/10/10 01:48:59;;;;;;;2.23;1.37;;;;;;;5.79;100.00;100321.22;4942700;28;20475;-57
2022/10/10 01:51:26;;;;;;;4.00;1.00;;;;;;;5.83;100.00;100328.22;4945753;29;20460;-57
2022/10/10 01:54:11;;;;;;;0.50;0.50;;;;;;;5.71;100.00;100323.03;4943497;29;20566;-57
2022/10/10 01:56:45;;;;;;;0.53;0.53;;;;;;;5.68;100.00;100312.53;4939536;28;20462;-57
2022/10/10 01:59:37;;;;;;;6.10;1.20;;;;;;;5.56;100.00;100309.97;4938321;29;20865;-57
2022/10/10 02:02:14;;;;;;;0.40;0.30;;;;;;;5.55;100.00;100311.75;4944952;29;20456;-56
2022/10/10 02:04:51;;;;;;;0.63;0.50;;;;;;;5.53;100.00;100307.38;4947396;29;20456;-57
2022/10/10 02:07:27;;;;;;;0.50;0.47;;;;;;;5.63;100.00;100312.56;4946857;29;20463;-57
2022/10/10 02:09:54;;;;;;;1.10;1.03;;;;;;;5.58;100.00;100313.47;4943414;29;20545;-57
2022/10/10 02:12:22;;;;;;;0.40;0.33;;;;;;;5.60;100.00;100309.06;4939737;29;20464;-57
2022/10/10 02:14:53;;;;;;;0.63;0.63;;;;;;;5.65;100.00;100317.84;4945642;28;20465;-57
2022/10/10 02:17:21;;;;;;;0.80;0.60;;;;;;;5.73;100.00;100312.47;4938985;28;20455;-56
2022/10/10 02:19:52;;;;;;;1.53;1.43;;;;;;;5.70;100.00;100316.03;4951233;28;20479;-57
2022/10/10 02:22:22;;;;;;;0.80;0.67;;;;;;;5.65;100.00;100316.06;4938640;28;20458;-57
2022/10/10 02:24:51;;;;;;;1.63;0.50;;;;;;;5.58;100.00;100309.06;4939980;29;20460;-57
2022/10/10 02:27:26;;;;;;;0.40;0.33;;;;;;;5.58;100.00;100314.34;4945955;29;20495;-57
2022/10/10 02:29:57;;;;;;;0.60;0.57;;;;;;;5.56;100.00;100304.72;4944603;29;20839;-56
2022/10/10 02:32:46;;;;;;;0.57;0.47;;;;;;;5.50;100.00;100294.22;4939560;28;20452;-57
2022/10/10 02:35:21;;;;;;;0.50;0.50;;;;;;;5.54;100.00;100303.84;4941176;28;20480;-57
2022/10/10 02:37:50;;;;;;;0.87;0.83;;;;;;;5.56;100.00;100307.34;4945286;28;20474;-57
2022/10/10 02:40:21;;;;;;;1.03;0.93;;;;;;;5.52;100.00;100306.50;4947266;29;20809;-58
2022/10/10 02:42:49;;;;;;;1.93;1.43;;;;;;;5.51;100.00;100307.41;4944705;29;20458;-57
2022/10/10 02:45:18;;;;;;;0.67;0.50;;;;;;;5.60;100.00;100309.06;4944707;29;20958;-57
2022/10/10 02:47:45;;;;;;;0.90;0.90;;;;;;;5.71;100.00;100314.25;4943805;29;20455;-56
2022/10/10 02:50:11;;;;;;;0.60;0.60;;;;;;;5.60;100.00;100316.97;4939208;28;20466;-57
2022/10/10 02:52:38;;;;;;;0.87;0.73;;;;;;;5.56;100.00;100313.50;4940653;28;20979;-56
2022/10/10 02:55:05;;;;;;;0.63;0.30;;;;;;;5.54;100.00;100315.28;4945515;29;20464;-56
2022/10/10 02:57:31;;;;;;;1.00;0.90;;;;;;;5.51;100.00;100307.41;4944715;29;20471;-56
2022/10/10 02:59:57;;;;;;;1.63;1.03;;;;;;;5.28;100.00;100297.00;4940754;28;20841;-56
2022/10/10 03:02:24;;;;;;;0.47;0.47;;;;;;;5.34;100.00;100301.34;4943423;28;20460;-57
2022/10/10 03:04:50;;;;;;;0.40;0.30;;;;;;;5.45;100.00;100298.63;4944984;29;20512;-57
2022/10/10 03:07:17;;;;;;;0.83;0.83;;;;;;;5.29;100.00;100308.44;4943307;29;20518;-57
2022/10/10 03:09:43;;;;;;;0.60;0.40;;;;;;;5.31;100.00;100304.00;4937634;28;21052;-57
2022/10/10 03:12:09;;;;;;;0.67;0.50;;;;;;;5.20;100.00;100303.22;4939118;28;20506;-57
2022/10/10 03:14:36;;;;;;;0.80;0.60;;;;;;;5.15;100.00;100305.00;4932502;29;20554;-57
2022/10/10 03:17:02;;;;;;;1.13;1.13;;;;;;;5.21;100.00;100312.88;4938014;28;20519;-57
2022/10/10 03:19:29;;;;;;;0.40;0.40;;;;;;;5.31;100.00;100310.16;4939674;29;20500;-58
2022/10/10 03:21:55;;;;;;;0.90;0.50;;;;;;;5.23;100.00;100308.47;4938771;28;20522;-57
2022/10/10 03:24:21;;;;;;;1.50;1.03;;;;;;;5.29;100.00;100300.53;4926470;29;20522;-57
2022/10/10 03:26:48;;;;;;;8.17;2.80;;;;;;;5.29;100.00;100303.16;4938727;28;20460;-58
2022/10/10 03:29:14;;;;;;;2.23;0.50;;;;;;;5.18;100.00;100308.50;4945458;29;20555;-57
2022/10/10 03:31:40;;;;;;;0.50;0.43;;;;;;;5.24;100.00;100307.59;4945075;29;20455;-58
2022/10/10 03:34:07;;;;;;;1.13;1.03;;;;;;;5.21;100.00;100303.22;4938463;29;20499;-57
2022/10/10 03:36:33;;;;;;;1.50;1.40;;;;;;;5.35;100.00;100303.13;4937672;28;20460;-57
2022/10/10 03:39:00;;;;;;;7.27;1.23;;;;;;;5.34;100.00;100307.53;4943551;28;20539;-57
2022/10/10 03:41:26;;;;;;;1.53;1.43;;;;;;;5.32;100.00;100308.41;4944313;29;20964;-56
2022/10/10 03:43:53;;;;;;;0.50;0.33;;;;;;;5.47;100.00;100312.69;4938862;29;20546;-57
2022/10/10 03:46:19;;;;;;;0.40;0.30;;;;;;;5.37;100.00;100311.03;4937707;28;20455;-56
2022/10/10 03:48:46;;;;;;;3.60;0.90;;;;;;;5.16;100.00;100315.53;4942897;28;20546;-57
2022/10/10 03:51:12;;;;;;;4.53;1.47;;;;;;;5.12;100.00;100305.91;4945017;29;20490;-57
2022/10/10 03:53:39;;;;;;;0.70;0.40;;;;;;;5.17;100.00;100308.50;4940127;29;20499;-57
2022/10/10 03:56:06;;;;;;;0.40;0.30;;;;;;;5.13;100.00;100298.88;4938866;28;20456;-58
2022/10/10 03:58:33;;;;;;;0.30;0.30;;;;;;;5.08;100.00;100304.19;4943224;29;20483;-58
2022/10/10 04:01:02;;;;;;;1.33;1.27;;;;;;;5.15;100.00;100300.63;4947612;29;20822;-57
2022/10/10 04:03:29;;;;;;;1.23;0.60;;;;;;;5.20;100.00;100305.84;4944252;29;20455;-57
2022/10/10 04:05:56;;;;;;;10.10;1.03;;;;;;;5.13;100.00;100306.78;4940554;28;20458;-57
2022/10/10 04:08:23;;;;;;;2.00;1.07;;;;;;;5.02;100.00;100306.84;4944586;28;20895;-57
2022/10/10 04:10:51;;;;;;;0.70;0.70;;;;;;;5.20;100.00;100306.72;4947579;29;20459;-57
2022/10/10 04:13:19;;;;;;;1.13;1.03;;;;;;;5.13;100.00;100306.78;4940866;29;20514;-56
2022/10/10 04:15:54;;;;;;;0.60;0.60;;;;;;;5.02;100.00;100314.75;4947079;29;20468;-56
2022/10/10 04:18:21;;;;;;;0.50;0.40;;;;;;;4.94;100.00;100309.53;4944311;29;20470;-57
2022/10/10 04:20:47;;;;;;;0.60;0.30;;;;;;;4.97;100.00;100317.41;4949540;28;20520;-57
2022/10/10 04:23:14;;;;;;;0.50;0.50;;;;;;;5.02;100.00;100315.63;4945054;29;20510;-57
2022/10/10 04:25:40;;;;;;;0.60;0.60;;;;;;;5.06;100.00;100311.19;4941024;28;20514;-57
2022/10/10 04:28:10;;;;;;;1.33;1.23;;;;;;;4.93;100.00;100315.66;4943851;28;20496;-57
2022/10/10 04:30:37;;;;;;;1.33;1.23;;;;;;;4.88;100.00;100311.31;4946740;29;20459;-58
2022/10/10 04:33:03;;;;;;;0.60;0.50;;;;;;;4.78;100.00;100314.88;4945087;29;20518;-57
2022/10/10 04:35:29;;;;;;;1.13;1.13;;;;;;;4.86;100.00;100316.59;4942321;28;20968;-58
2022/10/10 04:37:56;;;;;;;1.50;1.40;;;;;;;4.86;100.00;100318.34;4943236;28;20511;-57
2022/10/10 04:40:22;;;;;;;1.33;1.03;;;;;;;4.87;100.00;100320.97;4948040;29;20515;-58
2022/10/10 04:42:53;;;;;;;0.57;0.50;;;;;;;4.91;100.00;100325.31;4947234;29;20455;-57
2022/10/10 04:45:19;;;;;;;0.87;0.87;;;;;;;4.77;100.00;100316.63;4947543;29;20539;-57
2022/10/10 04:47:46;;;;;;;0.63;0.63;;;;;;;4.81;100.00;100320.13;4947567;29;20459;-58
2022/10/10 04:50:12;;;;;;;1.00;1.00;;;;;;;4.86;100.00;100318.34;4941629;28;20507;-57
2022/10/10 04:52:39;;;;;;;0.50;0.50;;;;;;;4.84;100.00;100318.34;4942203;28;20467;-58
2022/10/10 04:55:05;;;;;;;1.33;1.23;;;;;;;4.83;100.00;100307.84;4947436;29;20570;-58
2022/10/10 04:57:32;;;;;;;0.97;0.70;;;;;;;4.86;100.00;100315.72;4947650;29;20455;-57
2022/10/10 04:59:58;;;;;;;1.40;1.40;;;;;;;5.03;100.00;100311.22;4940375;28;20985;-57
2022/10/10 05:02:24;;;;;;;0.60;0.60;;;;;;;5.05;100.00;100315.59;4928876;28;20468;-57
2022/10/10 05:04:51;;;;;;;1.23;1.13;;;;;;;5.09;100.00;100310.34;4941399;29;20517;-57
2022/10/10 05:07:17;;;;;;;2.40;1.40;;;;;;;5.09;100.00;100312.97;4928050;29;20535;-58
2022/10/10 05:09:44;;;;;;;2.10;1.20;;;;;;;5.10;100.00;100312.94;4946453;29;21076;-58
2022/10/10 05:12:10;;;;;;;1.73;1.27;;;;;;;5.20;100.00;100306.72;4940687;29;20965;-58
2022/10/10 05:14:36;;;;;;;1.13;0.63;;;;;;;5.19;100.00;100318.13;4945549;29;20659;-56
2022/10/10 05:17:03;;;;;;;0.70;0.70;;;;;;;5.61;100.00;100308.16;4939464;28;20534;-56
2022/10/10 05:19:29;;;;;;;1.07;1.07;;;;;;;5.46;100.00;100301.25;4952840;28;20479;-55
2022/10/10 05:21:56;;;;;;;24.70;1.03;;;;;;;5.31;100.00;100302.25;4939662;28;20514;-56
2022/10/10 05:24:22;;;;;;;0.70;0.70;;;;;;;5.26;100.00;100306.69;4945897;28;20497;-56
2022/10/10 05:26:49;;;;;;;6.23;0.63;;;;;;;5.16;100.00;100312.91;4946176;29;20455;-56
2022/10/10 05:29:15;;;;;;;0.53;0.50;;;;;;;5.19;100.00;100315.50;4940950;29;20483;-57
2022/10/10 05:31:42;;;;;;;1.90;0.70;;;;;;;5.22;100.00;100312.00;4939970;28;20460;-57
2022/10/10 05:34:12;;;;;;;0.80;0.70;;;;;;;5.17;100.00;100311.13;4945153;28;20557;-56
2022/10/10 05:36:42;;;;;;;1.03;1.03;;;;;;;5.18;100.00;100315.53;4945566;29;20451;-56
2022/10/10 05:39:08;;;;;;;1.50;1.40;;;;;;;5.10;100.00;100312.06;4942253;29;20483;-56
2022/10/10 05:41:35;;;;;;;0.80;0.67;;;;;;;5.19;100.00;100320.78;4939031;28;20467;-56
2022/10/10 05:44:02;;;;;;;1.00;1.00;;;;;;;5.07;100.00;100310.31;4952295;28;20513;-56
2022/10/10 05:46:28;;;;;;;0.60;0.53;;;;;;;5.18;100.00;100315.53;4939035;28;20472;-56
2022/10/10 05:48:54;;;;;;;10.57;1.93;;;;;;;5.20;100.00;100324.28;4942415;28;20993;-56
2022/10/10 05:51:22;;;;;;;0.83;0.83;;;;;;;5.13;100.00;100323.47;4945639;29;20559;-57
2022/10/10 05:53:48;;;;;;;0.50;0.50;;;;;;;5.25;100.00;100328.66;4941820;29;20526;-56
2022/10/10 05:56:16;;;;;;;2.77;1.43;;;;;;;5.10;100.00;100328.75;4938447;28;20519;-56
2022/10/10 05:58:45;;;;;;;2.20;1.00;;;;;;;5.16;100.00;100333.97;4942167;28;20507;-56
2022/10/10 06:01:11;;;;;;;1.00;1.00;;;;;;;5.36;100.00;100323.31;4945296;29;20464;-57
2022/10/10 06:03:38;;;;;;;1.73;1.40;;;;;;;5.39;100.00;100336.47;4942157;29;20451;-56
2022/10/10 06:06:04;;;;;;;2.40;2.20;;;;;;;5.31;100.00;100323.34;4938506;29;20514;-56
2022/10/10 06:08:32;;;;;;;10.30;1.50;;;;;;;5.47;100.00;100324.09;4942021;28;21071;-57
2022/10/10 06:11:06;;;;;;;3.27;1.30;;;;;;;5.55;100.00;100322.28;4945360;29;20894;-57
2022/10/10 06:13:33;;;;;;;0.90;0.90;;;;;;;5.59;100.00;100321.38;4942996;29;20448;-56
2022/10/10 06:16:00;;;;;;;4.57;0.97;;;;;;;5.52;100.00;100324.97;4945225;29;20460;-56
2022/10/10 06:18:26;;;;;;;0.80;0.80;;;;;;;5.52;100.00;100332.88;4943470;29;20842;-57
2022/10/10 06:20:53;;;;;;;0.90;0.90;;;;;;;5.55;100.00;100331.97;4946474;28;20460;-56
2022/10/10 06:23:19;;;;;;;1.00;1.00;;;;;;;5.62;100.00;100339.84;4942584;29;20459;-56
2022/10/10 06:25:46;;;;;;;1.40;0.73;;;;;;;5.69;100.00;100343.28;4938219;28;20463;-56
2022/10/10 06:28:12;;;;;;;0.40;0.33;;;;;;;5.65;100.00;100346.84;4940601;28;20476;-56
2022/10/10 06:30:41;;;;;;;0.77;0.77;;;;;;;5.74;100.00;100345.88;4944858;29;20459;-56
2022/10/10 06:33:08;;;;;;;2.33;0.70;;;;;;;5.95;100.00;100356.28;4943088;29;20451;-56
2022/10/10 06:35:40;;;;;;;2.17;0.80;;;;;;;6.02;100.00;100357.09;4937921;28;20545;-57
2022/10/10 06:38:07;;;;;;;1.50;1.40;;;;;;;6.16;100.00;100350.78;4939519;28;20472;-57
2022/10/10 06:40:34;;;;;;;0.83;0.83;;;;;;;6.21;100.00;100359.56;4944606;29;21025;-58
2022/10/10 06:43:00;;;;;;;0.60;0.60;;;;;;;6.46;100.00;100365.47;4942926;29;20515;-57
2022/10/10 06:45:27;;;;;;;4.30;2.60;;;;;;;6.29;100.00;100364.75;4944462;29;20974;-56
2022/10/10 06:47:54;;;;;;;7.97;1.40;;;;;;;6.41;100.00;100367.25;4943827;29;20553;-56
2022/10/10 06:50:21;;;;;;;2.10;1.30;;;;;;;6.47;100.00;100369.84;4937901;28;20518;-57
2022/10/10 06:52:47;;;;;;;2.53;2.43;;;;;;;6.60;100.00;100377.66;4939073;28;20464;-56
2022/10/10 06:55:14;;;;;;;5.83;1.63;;;;;;;6.61;100.00;100377.63;4944629;29;20531;-57
2022/10/10 06:57:40;;;;;;;30.00;3.67;;;;;;;6.69;100.00;100374.88;4944196;29;20501;-57
2022/10/10 07:00:08;;;;;;;2.23;1.73;;;;;;;6.88;100.00;100387.00;4937915;28;20462;-57
2022/10/10 07:02:39;;;;;;;5.97;3.00;;;;;;;6.94;100.00;100388.69;4938196;28;20822;-57
2022/10/10 07:05:08;;;;;;;1.93;1.80;;;;;;;7.04;100.00;100395.63;4943882;28;20458;-57
2022/10/10 07:07:34;;;;;;;7.27;0.83;;;;;;;7.01;100.00;100393.00;4944762;29;20459;-56
2022/10/10 07:10:01;;;;;;;4.50;1.57;;;;;;;7.02;100.00;100389.47;4939541;29;20455;-56
2022/10/10 07:12:27;;;;;;;2.47;1.73;;;;;;;6.94;100.00;100384.28;4938806;28;20464;-56
2022/10/10 07:14:57;;;;;;;2.20;1.43;;;;;;;6.91;100.00;100375.53;4943678;29;20602;-57
2022/10/10 07:17:23;;;;;;;2.73;1.93;;;;;;;6.98;100.00;100382.47;4937661;28;20455;-57
2022/10/10 07:19:50;;;;;;;1.73;1.23;;;;;;;7.06;100.00;100384.13;4950819;28;20637;-57
2022/10/10 07:22:16;;;;;;;4.73;1.10;;;;;;;7.07;100.00;100379.72;4936542;29;20459;-58
2022/10/10 07:24:43;;;;;;;4.00;1.90;;;;;;;7.29;100.00;100373.25;4941642;28;20460;-57
2022/10/10 07:27:09;;;;;;;4.10;2.07;;;;;;;7.44;100.00;100382.75;4944544;29;20456;-57
2022/10/10 07:29:36;;;;;;;4.33;2.33;;;;;;;7.54;100.00;100384.34;4940736;29;20507;-57
2022/10/10 07:32:02;;;;;;;2.80;1.50;;;;;;;7.58;100.00;100378.13;4937625;28;20506;-57
2022/10/10 07:34:29;;;;;;;1.77;1.63;;;;;;;7.73;100.00;100385.81;4941740;28;20495;-56
2022/10/10 07:36:55;;;;;;;1.00;1.00;;;;;;;7.83;100.00;100386.56;4947656;29;20511;-56
2022/10/10 07:39:23;;;;;;;3.87;2.30;;;;;;;7.91;100.00;100383.78;4945436;29;20484;-56
2022/10/10 07:41:50;;;;;;;1.53;1.43;;;;;;;7.99;100.00;100377.47;4941111;28;20459;-57
2022/10/10 07:44:18;;;;;;;1.27;1.17;;;;;;;8.06;100.00;100380.88;4953313;28;20973;-57
2022/10/10 07:46:46;;;;;;;3.80;0.90;;;;;;;8.11;100.00;100375.50;4940717;28;20463;-57
2022/10/10 07:49:12;;;;;;;1.13;0.97;;;;;;;8.55;100.00;100378.25;4943484;28;20479;-57
2022/10/10 07:51:38;;;;;;;3.70;3.40;;;;;;;8.64;100.00;100387.81;4947796;29;21013;-56
2022/10/10 07:54:05;;;;;;;4.33;4.07;;;;;;;8.60;100.00;100392.28;4945649;28;20498;-57
2022/10/10 07:56:32;;;;;;;2.30;2.20;;;;;;;8.77;100.00;100385.78;4941330;28;20865;-57
2022/10/10 07:58:59;;;;;;;5.23;2.53;;;;;;;8.91;100.00;100386.41;4942623;28;20487;-57
2022/10/10 08:01:26;;;;;;;2.20;1.67;;;;;;;8.75;100.00;100379.63;4947659;29;20456;-58
2022/10/10 08:03:55;;;;;;;1.33;1.13;;;;;;;8.87;100.00;100390.00;4945755;29;20968;-57
2022/10/10 08:06:22;;;;;;;1.57;1.17;;;;;;;9.10;100.00;100395.72;4941031;29;20455;-57
2022/10/10 08:08:49;;;;;;;2.20;1.90;;;;;;;9.05;100.00;100402.91;4941997;28;20479;-57
2022/10/10 08:11:20;;;;;;;3.70;1.30;;;;;;;9.14;100.00;100391.22;4947503;29;20491;-57
2022/10/10 08:13:46;;;;;;;5.27;1.43;;;;;;;9.20;100.00;100385.78;4939989;29;20503;-56
2022/10/10 08:16:13;;;;;;;3.03;1.40;;;;;;;9.26;100.00;100392.75;4928430;29;20574;-56
2022/10/10 08:18:40;;;;;;;2.30;1.50;;;;;;;9.19;100.00;100384.94;4940345;28;20480;-57
2022/10/10 08:21:10;;;;;;;1.80;1.70;;;;;;;9.33;100.00;100367.84;4946949;28;20519;-57
2022/10/10 08:23:36;;;;;;;3.80;3.50;;;;;;;9.26;100.00;100376.81;4946876;29;20455;-57
2022/10/10 08:26:08;;;;;;;2.47;1.63;;;;;;;9.42;100.00;100376.44;4941619;29;20452;-58
2022/10/10 08:28:36;;;;;;;1.10;1.00;;;;;;;9.55;100.00;100374.38;4940357;28;20476;-57
2022/10/10 08:31:08;;;;;;;8.60;3.20;;;;;;;9.66;100.00;100382.09;4944808;28;21006;-57
2022/10/10 08:33:35;;;;;;;8.33;2.27;;;;;;;9.77;100.00;100374.78;4946805;29;20459;-57
2022/10/10 08:36:07;;;;;;;1.60;1.50;;;;;;;9.76;100.00;100375.69;4943630;29;20533;-57
2022/10/10 08:38:35;;;;;;;1.47;1.47;;;;;;;9.80;100.00;100380.88;4939681;28;20487;-57
2022/10/10 08:41:09;;;;;;;1.60;1.50;;;;;;;9.95;100.00;100373.44;4942734;28;20508;-57
2022/10/10 08:43:46;;;;;;;2.07;1.63;;;;;;;9.97;100.00;100377.78;4951756;29;20961;-58
2022/10/10 08:46:38;;;;;;;5.50;1.77;;;;;;;10.27;100.00;100370.00;4939723;28;20475;-57
2022/10/10 08:49:31;;;;;;;2.67;2.47;;;;;;;10.34;100.00;100371.59;4942387;28;20909;-57
2022/10/10 08:52:02;;;;;;;6.10;1.83;;;;;;;10.28;100.00;100375.28;4929985;29;20459;-58
2022/10/10 08:54:32;;;;;;;1.20;1.10;;;;;;;10.48;100.00;100368.56;4939787;28;20550;-57
2022/10/10 08:57:03;;;;;;;2.20;1.77;;;;;;;10.63;100.00;100371.66;4944505;28;20538;-58
2022/10/10 08:59:34;;;;;;;3.53;1.60;;;;;;;11.05;100.00;100373.16;4945181;29;21007;-58
2022/10/10 09:02:27;;;;;;;5.40;2.90;;;;;;;11.06;100.00;100358.94;4943588;29;20451;-57
2022/10/10 09:05:21;;;;;;;2.43;2.23;;;;;;;10.95;99.63;100357.47;4943150;28;20460;-58
2022/10/10 09:07:55;;;;;;;1.90;1.80;;;;;;;10.83;100.00;100363.16;4946127;29;20456;-57
2022/10/10 09:11:00;;;;;;;2.30;1.70;;;;;;;11.10;99.89;100361.50;4945782;29;20455;-57
2022/10/10 09:13:35;;;;;;;1.53;1.43;;;;;;;11.22;99.34;100371.72;4941319;29;20936;-57
2022/10/10 09:16:39;;;;;;;18.63;3.13;;;;;;;11.74;99.38;100372.78;4945971;29;20917;-58
2022/10/10 09:19:14;;;;;;;2.13;1.93;;;;;;;11.50;98.00;100362.91;4949253;29;20474;-57
2022/10/10 09:21:44;;;;;;;3.43;1.87;;;;;;;11.38;98.56;100369.50;4941264;28;20474;-58
2022/10/10 09:24:19;;;;;;;3.10;2.47;;;;;;;11.47;99.23;100361.22;4945876;29;20456;-57
2022/10/10 09:26:51;;;;;;;20.13;2.43;;;;;;;11.84;97.60;100366.28;4946129;29;20462;-57
2022/10/10 09:29:46;;;;;;;2.77;1.73;;;;;;;11.82;97.73;100357.47;4945266;28;20479;-57
2022/10/10 09:32:29;;;;;;;1.80;1.70;;;;;;;11.83;97.33;100363.69;4945771;29;20969;-57
2022/10/10 09:35:15;;;;;;;4.10;2.03;;;;;;;12.18;97.25;100346.50;4945473;29;20495;-58
2022/10/10 09:37:43;;;;;;;2.83;2.63;;;;;;;12.12;96.98;100342.25;4942663;29;20514;-57
2022/10/10 09:40:21;;;;;;;5.60;2.70;;;;;;;12.44;96.51;100346.47;4938082;29;20506;-57
2022/10/10 09:42:47;;;;;;;2.33;1.73;;;;;;;12.44;97.54;100340.25;4940451;28;20454;-58
2022/10/10 09:45:18;;;;;;;2.40;1.70;;;;;;;12.70;96.16;100342.00;4950832;29;21003;-57
2022/10/10 09:47:49;;;;;;;6.10;1.40;;;;;;;12.83;96.77;100334.41;4939844;28;20464;-57
2022/10/10 09:50:16;;;;;;;5.77;2.97;;;;;;;12.95;96.97;100331.28;4927109;29;20455;-58
2022/10/10 09:52:44;;;;;;;3.77;3.50;;;;;;;13.34;95.76;100335.13;4938119;28;20474;-57
2022/10/10 09:55:19;;;;;;;2.03;1.90;;;;;;;13.27;96.87;100340.75;4944740;28;20606;-57
2022/10/10 09:57:46;;;;;;;2.70;2.20;;;;;;;13.31;97.26;100339.75;4944563;28;20894;-57
2022/10/10 10:00:19;;;;;;;2.20;1.87;;;;;;;13.87;95.37;100337.47;4941697;29;20550;-57
2022/10/10 10:03:03;;;;;;;2.00;1.80;;;;;;;14.07;94.19;100327.72;4938886;28;20471;-57
2022/10/10 10:05:29;;;;;;;6.93;2.23;;;;;;;14.24;94.21;100335.88;4939629;28;20448;-57
2022/10/10 10:07:57;;;;;;;30.00;2.10;;;;;;;14.21;93.84;100336.88;4944954;29;20484;-57
2022/10/10 10:10:26;;;;;;;2.30;2.20;;;;;;;14.65;92.87;100336.78;4944659;29;20511;-57
2022/10/10 10:12:54;;;;;;;1.30;1.20;;;;;;;14.74;92.13;100340.88;4947876;28;20451;-58
2022/10/10 10:15:29;;;;;;;1.73;1.63;;;;;;;14.65;92.29;100333.25;4937763;29;20546;-58
2022/10/10 10:18:19;;;;;;;2.43;2.20;;;;;;;14.78;93.13;100329.06;4943985;28;20902;-57
2022/10/10 10:20:49;;;;;;;1.70;1.60;;;;;;;15.09;92.11;100334.78;4944811;29;20460;-58
2022/10/10 10:23:31;;;;;;;3.20;3.00;;;;;;;15.02;92.45;100338.66;4943541;29;20467;-57
2022/10/10 10:26:21;;;;;;;8.37;3.00;;;;;;;14.99;92.07;100335.28;4944590;28;20464;-57
2022/10/10 10:28:49;;;;;;;2.23;2.03;;;;;;;14.86;92.90;100344.81;4945145;29;20476;-58
2022/10/10 10:31:26;;;;;;;6.43;3.00;;;;;;;15.07;92.89;100333.09;4942100;29;20459;-58
2022/10/10 10:34:15;;;;;;;1.97;1.80;;;;;;;15.40;92.30;100330.66;4938889;28;20486;-59
2022/10/10 10:37:03;;;;;;;3.27;2.43;;;;;;;15.10;92.82;100336.53;4938070;28;21321;-59
2022/10/10 10:39:50;;;;;;;6.67;3.87;;;;;;;15.46;93.07;100333.03;4939439;29;21025;-59
2022/10/10 10:42:36;;;;;;;3.30;3.00;;;;;;;15.71;91.53;100343.47;4928196;29;20459;-58
2022/10/10 10:45:16;;;;;;;2.90;1.20;;;;;;;15.33;93.07;100346.13;4946942;28;20467;-59
2022/10/10 10:48:03;;;;;;;1.80;1.70;;;;;;;15.68;92.77;100338.25;4943308;29;20944;-59
2022/10/10 10:50:36;;;;;;;12.00;2.87;;;;;;;15.65;93.01;100339.28;4929071;29;20455;-59
2022/10/10 10:53:14;;;;;;;2.67;2.57;;;;;;;15.62;93.00;100346.59;4937795;28;20946;-59
2022/10/10 10:55:50;;;;;;;1.47;1.37;;;;;;;15.82;92.22;100348.31;4940458;28;20513;-58
2022/10/10 10:58:25;;;;;;;4.00;2.40;;;;;;;16.10;91.30;100339.75;4944484;29;20487;-59
2022/10/10 11:01:47;;;;;;;2.50;2.30;;;;;;;16.45;90.81;100340.66;4941739;29;20876;-59
2022/10/10 11:04:52;;;;;;;6.13;2.53;;;;;;;16.42;90.83;100346.16;4911465;29;20824;-59
2022/10/10 11:08:25;;;;;;;1.77;1.40;;;;;;;16.42;90.97;100336.28;4940603;29;20513;-59
2022/10/10 11:11:32;;;;;;;2.80;1.43;;;;;;;16.83;89.74;100336.81;4930929;29;20464;-59
2022/10/10 11:14:08;;;;;;;2.10;1.90;;;;;;;16.74;89.63;100333.78;4911852;29;20463;-59
2022/10/10 11:16:41;;;;;;;7.97;2.37;;;;;;;16.72;89.92;100336.56;4945163;28;20503;-59
2022/10/10 11:19:25;;;;;;;8.37;1.77;;;;;;;16.99;89.75;100336.84;4952635;29;20502;-59
2022/10/10 11:21:54;;;;;;;1.87;1.40;;;;;;;17.15;88.52;100334.22;4942001;28;20455;-58
2022/10/10 11:24:35;;;;;;;21.60;3.00;;;;;;;16.88;90.09;100332.09;4930394;29;20888;-59
2022/10/10 11:27:08;;;;;;;2.87;2.53;;;;;;;16.79;89.94;100329.03;4941333;28;20455;-59
2022/10/10 11:29:57;;;;;;;1.90;1.80;;;;;;;17.12;90.09;100320.94;4944725;28;20476;-59
2022/10/10 11:32:41;;;;;;;5.80;2.70;;;;;;;16.97;90.16;100319.97;4947820;29;20448;-59
2022/10/10 11:35:15;;;;;;;2.70;2.30;;;;;;;17.25;88.81;100326.50;4947975;29;20495;-59
2022/10/10 11:37:48;;;;;;;2.70;1.77;;;;;;;17.45;88.86;100316.38;4944456;29;20459;-59
2022/10/10 11:40:58;;;;;;;1.70;1.60;;;;;;;17.67;88.85;100315.13;4941548;28;20459;-59
2022/10/10 11:43:50;;;;;;;3.57;1.33;;;;;;;17.62;89.07;100309.19;4941115;29;20455;-59